Tor Futura — OZZE2 — position and weather

sailwx.info

Track history (hours):
 
Tides and Currents Weather Stations Pressure Air Temp Water Temp Dewpoint Dewpoint Depression Visibility Wind Speed Wind Dir Waves Ship Positions

Tor Futura

Last reported at 2018-Apr-25 15:25 UTC. Time now 2018-Apr-26 00:13 UTC.
Position N 55°29' E 016°51'.

Length 183.1 m; beam 25.2 m; draft 7.8 m.

Type: Ship. MMSI: 219927000.

Date/timePositionNaut miles runAvg speedWind from/ knotsBaromVisibWave heightAir tempDewpointWater temp
2018-Apr-25 15:25N 55°29' E 016°51'1819.3
2018-Apr-25 14:28N 55°27' E 016°19'919.3
2018-Apr-25 14:00N 55°27' E 016°03'1019.2
2018-Apr-25 13:30N 55°26' E 015°46'1019.2
2018-Apr-25 13:00N 55°25' E 015°29'919.0
2018-Apr-25 12:30N 55°24' E 015°13'1019.2
2018-Apr-25 12:00N 55°24' E 014°56'1019.1
2018-Apr-25 11:30N 55°23' E 014°39'918.8
2018-Apr-25 11:00N 55°16' E 014°27'917.9
2018-Apr-25 10:30N 55°11' E 014°14'1518.6
2018-Apr-25 09:40N 55°12' E 013°47'2318.6
2018-Apr-25 08:28N 55°14' E 013°08'918.6
2018-Apr-25 08:00N 55°15' E 012°53'816.8
2018-Apr-25 07:30N 55°17' E 012°39'713.5
2018-Apr-25 07:00N 55°24' E 012°40'815.6
2018-Apr-25 06:30N 55°32' E 012°42'612.1
2018-Apr-25 06:00N 55°38' E 012°42'611.6
2018-Apr-25 05:31N 55°43' E 012°38'1 2.2
2018-Apr-25 04:56N 55°42' E 012°36'0 0.0
2018-Apr-25 04:26N 55°42' E 012°36'0 0.0
2018-Apr-25 04:00N 55°42' E 012°36'1 1.6
2018-Apr-25 03:30N 55°43' E 012°37'611.8
2018-Apr-25 03:00N 55°48' E 012°42'714.3
2018-Apr-25 02:31N 55°55' E 012°39'714.5
2018-Apr-25 02:00N 56°02' E 012°39'714.4
2018-Apr-25 01:30N 56°07' E 012°30'5 0.2
2018-Apr-23 20:24N 56°11' E 012°25'615.9
2018-Apr-23 20:00N 56°07' E 012°33'714.7
2018-Apr-23 19:30N 56°01' E 012°41'815.3
2018-Apr-23 19:01N 55°53' E 012°44'815.3
2018-Apr-23 18:30N 55°46' E 012°42'510.1
2018-Apr-23 18:00N 55°42' E 012°36'0 0.0
2018-Apr-23 17:30N 55°42' E 012°36'0 0.0
2018-Apr-23 16:57N 55°42' E 012°36'0 0.0
2018-Apr-23 16:30N 55°42' E 012°36'0 0.0
2018-Apr-23 16:00N 55°42' E 012°36'1 2.6
2018-Apr-23 15:30N 55°43' E 012°38'510.5
2018-Apr-23 15:01N 55°38' E 012°42'611.9
2018-Apr-23 14:30N 55°32' E 012°43'814.9
2018-Apr-23 14:00N 55°25' E 012°41'713.4
2018-Apr-23 13:30N 55°18' E 012°43'714.9
2018-Apr-23 13:00N 55°16' E 012°55'815.0
2018-Apr-23 12:30N 55°15' E 013°08'2715.4
2018-Apr-23 10:44N 55°14' E 013°56'515.5
2018-Apr-23 10:24N 55°14' E 014°05'714.6
2018-Apr-23 09:56N 55°15' E 014°17'715.6
2018-Apr-23 09:31N 55°20' E 014°25'815.6
2018-Apr-23 09:01N 55°26' E 014°35'816.7
2018-Apr-23 08:30N 55°27' E 014°49'815.9
2018-Apr-23 08:00N 55°27' E 015°03'815.9
2018-Apr-23 07:31N 55°28' E 015°17'815.6
2018-Apr-23 07:00N 55°28' E 015°31'815.9
2018-Apr-23 06:30N 55°29' E 015°45'815.9
2018-Apr-23 06:00N 55°29' E 015°59'815.7
2018-Apr-23 05:30N 55°29' E 016°13'815.8
2018-Apr-23 05:00N 55°30' E 016°26'815.9
2018-Apr-23 04:30N 55°30' E 016°41'816.1
2018-Apr-23 04:00N 55°31' E 016°55'816.2
2018-Apr-23 03:30N 55°31' E 017°09'916.3
2018-Apr-23 02:58N 55°32' E 017°24'816.3
2018-Apr-23 02:30N 55°32' E 017°38'816.5
2018-Apr-23 02:00N 55°33' E 017°52'816.4
2018-Apr-23 01:30N 55°34' E 018°07'816.5
2018-Apr-23 01:00N 55°35' E 018°22'816.8
2018-Apr-23 00:30N 55°36' E 018°36'916.6
2018-Apr-22 23:59N 55°37' E 018°51'58 2.4
2018-Apr-21 23:30N 55°30' E 017°09'815.5
2018-Apr-21 22:58N 55°30' E 016°54'715.5
2018-Apr-21 22:30N 55°29' E 016°41'815.7
2018-Apr-21 22:00N 55°28' E 016°28'815.7
2018-Apr-21 21:30N 55°28' E 016°14'815.8
2018-Apr-21 21:00N 55°27' E 015°60'815.7
2018-Apr-21 20:30N 55°26' E 015°46'815.6
2018-Apr-21 20:00N 55°25' E 015°33'815.7
2018-Apr-21 19:30N 55°25' E 015°19'815.7
2018-Apr-21 19:01N 55°24' E 015°05'815.9
2018-Apr-21 18:30N 55°23' E 014°51'815.3
2018-Apr-21 18:00N 55°22' E 014°38'815.8
2018-Apr-21 17:30N 55°16' E 014°28'815.5
2018-Apr-21 17:00N 55°11' E 014°17'815.6
2018-Apr-21 16:30N 55°11' E 014°04'1615.7
2018-Apr-21 15:28N 55°12' E 013°35'1015.8
2018-Apr-21 14:52N 55°12' E 013°18'616.0
2018-Apr-21 14:28N 55°13' E 013°08'817.7
2018-Apr-21 14:00N 55°14' E 012°53'816.9
2018-Apr-21 13:30N 55°18' E 012°40'714.9
2018-Apr-21 13:00N 55°25' E 012°40'714.5
2018-Apr-21 12:30N 55°33' E 012°42'612.7
2018-Apr-21 12:01N 55°39' E 012°41'4 8.9
2018-Apr-21 11:30N 55°42' E 012°36'0 0.8
2018-Apr-21 10:58N 55°42' E 012°36'0 0.0
2018-Apr-21 10:28N 55°42' E 012°36'0 0.0
2018-Apr-21 09:58N 55°42' E 012°36'0 0.4
2018-Apr-21 09:30N 55°42' E 012°36'3 6.4
2018-Apr-21 09:00N 55°44' E 012°40'713.6
2018-Apr-21 08:30N 55°51' E 012°41'714.2
2018-Apr-21 08:00N 55°58' E 012°40'815.1
2018-Apr-21 07:30N 56°05' E 012°35'46 2.4
2018-Apr-20 11:55N 56°07' E 011°12'1515.3
2018-Apr-20 10:56N 56°09' E 011°39'2115.6
2018-Apr-20 09:34N 56°11' E 012°17'215.6
2018-Apr-20 09:27N 56°10' E 012°20'715.8
2018-Apr-20 09:00N 56°08' E 012°32'816.2
2018-Apr-20 08:30N 56°01' E 012°40'815.9
2018-Apr-20 08:00N 55°54' E 012°44'816.1
2018-Apr-20 07:31N 55°46' E 012°42'5 9.7
2018-Apr-20 07:00N 55°42' E 012°36'0 0.0
2018-Apr-20 06:30N 55°42' E 012°36'0 0.0
2018-Apr-20 05:59N 55°42' E 012°36'0 0.0
2018-Apr-20 05:29N 55°42' E 012°36'0 0.0
2018-Apr-20 04:59N 55°42' E 012°36'0 0.0
2018-Apr-20 04:30N 55°42' E 012°36'1 2.6
2018-Apr-20 04:00N 55°43' E 012°38'511.0
2018-Apr-20 03:30N 55°38' E 012°42'612.4
2018-Apr-20 03:00N 55°32' E 012°43'713.4
2018-Apr-20 02:30N 55°25' E 012°41'714.0
2018-Apr-20 02:00N 55°18' E 012°43'815.2
2018-Apr-20 01:30N 55°16' E 012°56'815.8
2018-Apr-20 01:00N 55°16' E 013°09'816.0
2018-Apr-20 00:30N 55°15' E 013°24'816.9
2018-Apr-20 00:00N 55°15' E 013°38'917.9
2018-Apr-19 23:30N 55°14' E 013°54'918.0
2018-Apr-19 23:00N 55°14' E 014°09'917.0
2018-Apr-19 22:30N 55°18' E 014°23'918.6
2018-Apr-19 22:00N 55°24' E 014°34'917.5
2018-Apr-19 21:30N 55°27' E 014°49'918.7
2018-Apr-19 21:00N 55°28' E 015°05'918.6
2018-Apr-19 20:30N 55°29' E 015°22'918.4
2018-Apr-19 20:00N 55°29' E 015°38'918.4
2018-Apr-19 19:30N 55°29' E 015°54'918.5
2018-Apr-19 19:00N 55°29' E 016°11'918.5
2018-Apr-19 18:30N 55°30' E 016°27'918.6
2018-Apr-19 18:00N 55°30' E 016°43'918.6
2018-Apr-19 17:30N 55°31' E 016°60'918.6
2018-Apr-19 17:00N 55°31' E 017°16'918.6
2018-Apr-19 16:30N 55°32' E 017°33'918.7
2018-Apr-19 16:00N 55°33' E 017°49'918.8
2018-Apr-19 15:30N 55°34' E 018°05'3718.6
2018-Apr-19 13:32N 55°38' E 019°10'109 4.6
2018-Apr-18 13:59N 55°27' E 015°59'919.4
2018-Apr-18 13:30N 55°26' E 015°42'1019.6
2018-Apr-18 13:00N 55°25' E 015°25'1019.8
2018-Apr-18 12:30N 55°24' E 015°08'1019.7
2018-Apr-18 12:00N 55°23' E 014°51'918.1
2018-Apr-18 11:30N 55°20' E 014°36'1019.6
2018-Apr-18 11:00N 55°12' E 014°24'917.7
2018-Apr-18 10:30N 55°10' E 014°09'2019.1
2018-Apr-18 09:28N 55°12' E 013°35'919.3
2018-Apr-18 09:00N 55°13' E 013°19'1019.4
2018-Apr-18 08:30N 55°14' E 013°02'918.7
2018-Apr-18 08:00N 55°16' E 012°46'714.0
2018-Apr-18 07:30N 55°22' E 012°39'815.5
2018-Apr-18 07:00N 55°29' E 012°41'612.9
2018-Apr-18 06:30N 55°36' E 012°42'611.7
2018-Apr-18 06:00N 55°41' E 012°39'2 3.4
2018-Apr-18 05:30N 55°42' E 012°36'0 0.0
2018-Apr-18 05:00N 55°42' E 012°36'0 0.0
2018-Apr-18 04:28N 55°42' E 012°36'0 0.0
2018-Apr-18 04:00N 55°42' E 012°36'1 1.6
2018-Apr-18 03:30N 55°43' E 012°37'611.8
2018-Apr-18 03:00N 55°48' E 012°42'714.8
2018-Apr-18 02:30N 55°55' E 012°39'714.2
2018-Apr-18 02:00N 56°02' E 012°39'714.9
2018-Apr-18 01:30N 56°07' E 012°30'814.6
2018-Apr-18 00:57N 56°11' E 012°17'715.4
2018-Apr-18 00:30N 56°11' E 012°04'816.0
2018-Apr-17 23:59N 56°09' E 011°50'1615.3
2018-Apr-17 22:56N 56°08' E 011°21'914.0
2018-Apr-17 22:18N 56°03' E 011°08'36 1.4
2018-Apr-16 20:46N 56°11' E 012°11'515.2
2018-Apr-16 20:27N 56°11' E 012°20'614.7
2018-Apr-16 20:01N 56°08' E 012°31'815.1
2018-Apr-16 19:31N 56°03' E 012°40'815.1
2018-Apr-16 19:00N 55°56' E 012°44'714.5
2018-Apr-16 18:30N 55°48' E 012°43'713.8
2018-Apr-16 18:00N 55°42' E 012°37'1 1.0
2018-Apr-16 17:29N 55°42' E 012°36'0 0.0
2018-Apr-16 16:59N 55°42' E 012°36'0 0.0
2018-Apr-16 16:29N 55°42' E 012°36'0 0.1
2018-Apr-16 16:00N 55°42' E 012°36'1 2.7
2018-Apr-16 15:30N 55°43' E 012°38'612.1
2018-Apr-16 15:00N 55°37' E 012°42'611.2
2018-Apr-16 14:30N 55°32' E 012°43'612.9
2018-Apr-16 14:00N 55°25' E 012°41'713.7
2018-Apr-16 13:30N 55°18' E 012°42'815.5
2018-Apr-16 13:00N 55°16' E 012°55'815.7
2018-Apr-16 12:30N 55°16' E 013°09'816.0
2018-Apr-16 12:00N 55°15' E 013°23'816.1
2018-Apr-16 11:30N 55°15' E 013°37'815.8
2018-Apr-16 10:58N 55°14' E 013°52'915.6
2018-Apr-16 10:25N 55°14' E 014°07'615.3
2018-Apr-16 10:00N 55°15' E 014°17'815.3
2018-Apr-16 09:30N 55°21' E 014°26'815.9
2018-Apr-16 09:00N 55°26' E 014°36'815.9
2018-Apr-16 08:30N 55°27' E 014°50'816.1
2018-Apr-16 08:00N 55°28' E 015°04'815.8
2018-Apr-16 07:29N 55°29' E 015°19'815.9
2018-Apr-16 07:00N 55°28' E 015°32'816.2
2018-Apr-16 06:30N 55°28' E 015°47'816.1
2018-Apr-16 06:00N 55°29' E 016°01'815.9
2018-Apr-16 05:30N 55°29' E 016°15'816.2
2018-Apr-16 05:00N 55°30' E 016°29'816.0
2018-Apr-16 04:30N 55°30' E 016°43'815.8
2018-Apr-16 03:58N 55°31' E 016°58'715.8
2018-Apr-16 03:30N 55°31' E 017°11'1715.9
2018-Apr-16 02:26N 55°32' E 017°41'  
Track history (hours):
 
Tides and Currents Weather Stations Pressure Air Temp Water Temp Dewpoint Dewpoint Depression Visibility Wind Speed Wind Dir Waves Ship Positions

Tor Futura

Last reported at 2018-Apr-25 15:25 UTC. Time now 2018-Apr-26 00:13 UTC.
Position N 55°29' E 016°51'.

Length 183.1 m; beam 25.2 m; draft 7.8 m.

Type: Ship. MMSI: 219927000.

Date/timePositionNaut miles runAvg speedWind from/ knotsBaromVisibWave heightAir tempDewpointWater temp
2018-Apr-25 15:25N 55°29' E 016°51'1819.3
2018-Apr-25 14:28N 55°27' E 016°19'919.3
2018-Apr-25 14:00N 55°27' E 016°03'1019.2
2018-Apr-25 13:30N 55°26' E 015°46'1019.2
2018-Apr-25 13:00N 55°25' E 015°29'919.0
2018-Apr-25 12:30N 55°24' E 015°13'1019.2
2018-Apr-25 12:00N 55°24' E 014°56'1019.1
2018-Apr-25 11:30N 55°23' E 014°39'918.8
2018-Apr-25 11:00N 55°16' E 014°27'917.9
2018-Apr-25 10:30N 55°11' E 014°14'1518.6
2018-Apr-25 09:40N 55°12' E 013°47'2318.6
2018-Apr-25 08:28N 55°14' E 013°08'918.6
2018-Apr-25 08:00N 55°15' E 012°53'816.8
2018-Apr-25 07:30N 55°17' E 012°39'713.5
2018-Apr-25 07:00N 55°24' E 012°40'815.6
2018-Apr-25 06:30N 55°32' E 012°42'612.1
2018-Apr-25 06:00N 55°38' E 012°42'611.6
2018-Apr-25 05:31N 55°43' E 012°38'1 2.2
2018-Apr-25 04:56N 55°42' E 012°36'0 0.0
2018-Apr-25 04:26N 55°42' E 012°36'0 0.0
2018-Apr-25 04:00N 55°42' E 012°36'1 1.6
2018-Apr-25 03:30N 55°43' E 012°37'611.8
2018-Apr-25 03:00N 55°48' E 012°42'714.3
2018-Apr-25 02:31N 55°55' E 012°39'714.5
2018-Apr-25 02:00N 56°02' E 012°39'714.4
2018-Apr-25 01:30N 56°07' E 012°30'5 0.2
2018-Apr-23 20:24N 56°11' E 012°25'615.9
2018-Apr-23 20:00N 56°07' E 012°33'714.7
2018-Apr-23 19:30N 56°01' E 012°41'815.3
2018-Apr-23 19:01N 55°53' E 012°44'815.3
2018-Apr-23 18:30N 55°46' E 012°42'510.1
2018-Apr-23 18:00N 55°42' E 012°36'0 0.0
2018-Apr-23 17:30N 55°42' E 012°36'0 0.0
2018-Apr-23 16:57N 55°42' E 012°36'0 0.0
2018-Apr-23 16:30N 55°42' E 012°36'0 0.0
2018-Apr-23 16:00N 55°42' E 012°36'1 2.6
2018-Apr-23 15:30N 55°43' E 012°38'510.5
2018-Apr-23 15:01N 55°38' E 012°42'611.9
2018-Apr-23 14:30N 55°32' E 012°43'814.9
2018-Apr-23 14:00N 55°25' E 012°41'713.4
2018-Apr-23 13:30N 55°18' E 012°43'714.9
2018-Apr-23 13:00N 55°16' E 012°55'815.0
2018-Apr-23 12:30N 55°15' E 013°08'2715.4
2018-Apr-23 10:44N 55°14' E 013°56'515.5
2018-Apr-23 10:24N 55°14' E 014°05'714.6
2018-Apr-23 09:56N 55°15' E 014°17'715.6
2018-Apr-23 09:31N 55°20' E 014°25'815.6
2018-Apr-23 09:01N 55°26' E 014°35'816.7
2018-Apr-23 08:30N 55°27' E 014°49'815.9
2018-Apr-23 08:00N 55°27' E 015°03'815.9
2018-Apr-23 07:31N 55°28' E 015°17'815.6
2018-Apr-23 07:00N 55°28' E 015°31'815.9
2018-Apr-23 06:30N 55°29' E 015°45'815.9
2018-Apr-23 06:00N 55°29' E 015°59'815.7
2018-Apr-23 05:30N 55°29' E 016°13'815.8
2018-Apr-23 05:00N 55°30' E 016°26'815.9
2018-Apr-23 04:30N 55°30' E 016°41'816.1
2018-Apr-23 04:00N 55°31' E 016°55'816.2
2018-Apr-23 03:30N 55°31' E 017°09'916.3
2018-Apr-23 02:58N 55°32' E 017°24'816.3
2018-Apr-23 02:30N 55°32' E 017°38'816.5
2018-Apr-23 02:00N 55°33' E 017°52'816.4
2018-Apr-23 01:30N 55°34' E 018°07'816.5
2018-Apr-23 01:00N 55°35' E 018°22'816.8
2018-Apr-23 00:30N 55°36' E 018°36'916.6
2018-Apr-22 23:59N 55°37' E 018°51'58 2.4
2018-Apr-21 23:30N 55°30' E 017°09'815.5
2018-Apr-21 22:58N 55°30' E 016°54'715.5
2018-Apr-21 22:30N 55°29' E 016°41'815.7
2018-Apr-21 22:00N 55°28' E 016°28'815.7
2018-Apr-21 21:30N 55°28' E 016°14'815.8
2018-Apr-21 21:00N 55°27' E 015°60'815.7
2018-Apr-21 20:30N 55°26' E 015°46'815.6
2018-Apr-21 20:00N 55°25' E 015°33'815.7
2018-Apr-21 19:30N 55°25' E 015°19'815.7
2018-Apr-21 19:01N 55°24' E 015°05'815.9
2018-Apr-21 18:30N 55°23' E 014°51'815.3
2018-Apr-21 18:00N 55°22' E 014°38'815.8
2018-Apr-21 17:30N 55°16' E 014°28'815.5
2018-Apr-21 17:00N 55°11' E 014°17'815.6
2018-Apr-21 16:30N 55°11' E 014°04'1615.7
2018-Apr-21 15:28N 55°12' E 013°35'1015.8
2018-Apr-21 14:52N 55°12' E 013°18'616.0
2018-Apr-21 14:28N 55°13' E 013°08'817.7
2018-Apr-21 14:00N 55°14' E 012°53'816.9
2018-Apr-21 13:30N 55°18' E 012°40'714.9
2018-Apr-21 13:00N 55°25' E 012°40'714.5
2018-Apr-21 12:30N 55°33' E 012°42'612.7
2018-Apr-21 12:01N 55°39' E 012°41'4 8.9
2018-Apr-21 11:30N 55°42' E 012°36'0 0.8
2018-Apr-21 10:58N 55°42' E 012°36'0 0.0
2018-Apr-21 10:28N 55°42' E 012°36'0 0.0
2018-Apr-21 09:58N 55°42' E 012°36'0 0.4
2018-Apr-21 09:30N 55°42' E 012°36'3 6.4
2018-Apr-21 09:00N 55°44' E 012°40'713.6
2018-Apr-21 08:30N 55°51' E 012°41'714.2
2018-Apr-21 08:00N 55°58' E 012°40'815.1
2018-Apr-21 07:30N 56°05' E 012°35'46 2.4
2018-Apr-20 11:55N 56°07' E 011°12'1515.3
2018-Apr-20 10:56N 56°09' E 011°39'2115.6
2018-Apr-20 09:34N 56°11' E 012°17'215.6
2018-Apr-20 09:27N 56°10' E 012°20'715.8
2018-Apr-20 09:00N 56°08' E 012°32'816.2
2018-Apr-20 08:30N 56°01' E 012°40'815.9
2018-Apr-20 08:00N 55°54' E 012°44'816.1
2018-Apr-20 07:31N 55°46' E 012°42'5 9.7
2018-Apr-20 07:00N 55°42' E 012°36'0 0.0
2018-Apr-20 06:30N 55°42' E 012°36'0 0.0
2018-Apr-20 05:59N 55°42' E 012°36'0 0.0
2018-Apr-20 05:29N 55°42' E 012°36'0 0.0
2018-Apr-20 04:59N 55°42' E 012°36'0 0.0
2018-Apr-20 04:30N 55°42' E 012°36'1 2.6
2018-Apr-20 04:00N 55°43' E 012°38'511.0
2018-Apr-20 03:30N 55°38' E 012°42'612.4
2018-Apr-20 03:00N 55°32' E 012°43'713.4
2018-Apr-20 02:30N 55°25' E 012°41'714.0
2018-Apr-20 02:00N 55°18' E 012°43'815.2
2018-Apr-20 01:30N 55°16' E 012°56'815.8
2018-Apr-20 01:00N 55°16' E 013°09'816.0
2018-Apr-20 00:30N 55°15' E 013°24'816.9
2018-Apr-20 00:00N 55°15' E 013°38'917.9
2018-Apr-19 23:30N 55°14' E 013°54'918.0
2018-Apr-19 23:00N 55°14' E 014°09'917.0
2018-Apr-19 22:30N 55°18' E 014°23'918.6
2018-Apr-19 22:00N 55°24' E 014°34'917.5
2018-Apr-19 21:30N 55°27' E 014°49'918.7
2018-Apr-19 21:00N 55°28' E 015°05'918.6
2018-Apr-19 20:30N 55°29' E 015°22'918.4
2018-Apr-19 20:00N 55°29' E 015°38'918.4
2018-Apr-19 19:30N 55°29' E 015°54'918.5
2018-Apr-19 19:00N 55°29' E 016°11'918.5
2018-Apr-19 18:30N 55°30' E 016°27'918.6
2018-Apr-19 18:00N 55°30' E 016°43'918.6
2018-Apr-19 17:30N 55°31' E 016°60'918.6
2018-Apr-19 17:00N 55°31' E 017°16'918.6
2018-Apr-19 16:30N 55°32' E 017°33'918.7
2018-Apr-19 16:00N 55°33' E 017°49'918.8
2018-Apr-19 15:30N 55°34' E 018°05'3718.6
2018-Apr-19 13:32N 55°38' E 019°10'109 4.6
2018-Apr-18 13:59N 55°27' E 015°59'919.4
2018-Apr-18 13:30N 55°26' E 015°42'1019.6
2018-Apr-18 13:00N 55°25' E 015°25'1019.8
2018-Apr-18 12:30N 55°24' E 015°08'1019.7
2018-Apr-18 12:00N 55°23' E 014°51'918.1
2018-Apr-18 11:30N 55°20' E 014°36'1019.6
2018-Apr-18 11:00N 55°12' E 014°24'917.7
2018-Apr-18 10:30N 55°10' E 014°09'2019.1
2018-Apr-18 09:28N 55°12' E 013°35'919.3
2018-Apr-18 09:00N 55°13' E 013°19'1019.4
2018-Apr-18 08:30N 55°14' E 013°02'918.7
2018-Apr-18 08:00N 55°16' E 012°46'714.0
2018-Apr-18 07:30N 55°22' E 012°39'815.5
2018-Apr-18 07:00N 55°29' E 012°41'612.9
2018-Apr-18 06:30N 55°36' E 012°42'611.7
2018-Apr-18 06:00N 55°41' E 012°39'2 3.4
2018-Apr-18 05:30N 55°42' E 012°36'0 0.0
2018-Apr-18 05:00N 55°42' E 012°36'0 0.0
2018-Apr-18 04:28N 55°42' E 012°36'0 0.0
2018-Apr-18 04:00N 55°42' E 012°36'1 1.6
2018-Apr-18 03:30N 55°43' E 012°37'611.8
2018-Apr-18 03:00N 55°48' E 012°42'714.8
2018-Apr-18 02:30N 55°55' E 012°39'714.2
2018-Apr-18 02:00N 56°02' E 012°39'714.9
2018-Apr-18 01:30N 56°07' E 012°30'814.6
2018-Apr-18 00:57N 56°11' E 012°17'715.4
2018-Apr-18 00:30N 56°11' E 012°04'816.0
2018-Apr-17 23:59N 56°09' E 011°50'1615.3
2018-Apr-17 22:56N 56°08' E 011°21'914.0
2018-Apr-17 22:18N 56°03' E 011°08'36 1.4
2018-Apr-16 20:46N 56°11' E 012°11'515.2
2018-Apr-16 20:27N 56°11' E 012°20'614.7
2018-Apr-16 20:01N 56°08' E 012°31'815.1
2018-Apr-16 19:31N 56°03' E 012°40'815.1
2018-Apr-16 19:00N 55°56' E 012°44'714.5
2018-Apr-16 18:30N 55°48' E 012°43'713.8
2018-Apr-16 18:00N 55°42' E 012°37'1 1.0
2018-Apr-16 17:29N 55°42' E 012°36'0 0.0
2018-Apr-16 16:59N 55°42' E 012°36'0 0.0
2018-Apr-16 16:29N 55°42' E 012°36'0 0.1
2018-Apr-16 16:00N 55°42' E 012°36'1 2.7
2018-Apr-16 15:30N 55°43' E 012°38'612.1
2018-Apr-16 15:00N 55°37' E 012°42'611.2
2018-Apr-16 14:30N 55°32' E 012°43'612.9
2018-Apr-16 14:00N 55°25' E 012°41'713.7
2018-Apr-16 13:30N 55°18' E 012°42'815.5
2018-Apr-16 13:00N 55°16' E 012°55'815.7
2018-Apr-16 12:30N 55°16' E 013°09'816.0
2018-Apr-16 12:00N 55°15' E 013°23'816.1
2018-Apr-16 11:30N 55°15' E 013°37'815.8
2018-Apr-16 10:58N 55°14' E 013°52'915.6
2018-Apr-16 10:25N 55°14' E 014°07'615.3
2018-Apr-16 10:00N 55°15' E 014°17'815.3
2018-Apr-16 09:30N 55°21' E 014°26'815.9
2018-Apr-16 09:00N 55°26' E 014°36'815.9
2018-Apr-16 08:30N 55°27' E 014°50'816.1
2018-Apr-16 08:00N 55°28' E 015°04'815.8
2018-Apr-16 07:29N 55°29' E 015°19'815.9
2018-Apr-16 07:00N 55°28' E 015°32'816.2
2018-Apr-16 06:30N 55°28' E 015°47'816.1
2018-Apr-16 06:00N 55°29' E 016°01'815.9
2018-Apr-16 05:30N 55°29' E 016°15'816.2
2018-Apr-16 05:00N 55°30' E 016°29'816.0
2018-Apr-16 04:30N 55°30' E 016°43'815.8
2018-Apr-16 03:58N 55°31' E 016°58'715.8
2018-Apr-16 03:30N 55°31' E 017°11'1715.9
2018-Apr-16 02:26N 55°32' E 017°41'  

Dump ship's entire track history